Time;durP1;ratioP1;P1;durP2;ratioP2;P2;SDS_P1;SDS_P2;PMS_P1;PMS_P2;Temp;Humidity;BMP_temperature;BMP_pressure;BME280_temperature;BME280_humidity;BME280_pressure;Samples;Min_cycle;Max_cycle;Signal;HPM_P1;HPM_P2
2022/09/24 00:00:32;;;;;;;52.40;39.90;;;14.10;99.90;;;;;;5070544;28;20087;-51
2022/09/24 00:02:59;;;;;;;55.28;41.13;;;14.10;99.90;;;;;;5064384;28;20056;-47
2022/09/24 00:05:26;;;;;;;55.83;41.83;;;14.00;99.90;;;;;;5067210;28;20080;-48
2022/09/24 00:07:53;;;;;;;61.45;44.38;;;14.10;99.90;;;;;;5067608;28;20126;-52
2022/09/24 00:10:20;;;;;;;51.42;39.30;;;14.10;99.90;;;;;;5065212;28;20096;-47
2022/09/24 00:12:48;;;;;;;51.35;39.33;;;14.10;99.90;;;;;;5069619;28;20045;-48
2022/09/24 00:15:15;;;;;;;52.03;41.45;;;14.10;99.90;;;;;;5068569;28;20060;-49
2022/09/24 00:17:42;;;;;;;71.95;43.67;;;14.10;99.90;;;;;;5070979;28;20814;-47
2022/09/24 00:20:09;;;;;;;59.75;43.72;;;14.10;99.90;;;;;;5067755;28;20044;-49
2022/09/24 00:22:36;;;;;;;63.83;44.72;;;14.10;99.90;;;;;;5072071;28;20133;-50
2022/09/24 00:27:48;;;;;;;66.47;46.47;;;14.00;99.90;;;;;;5068044;28;20131;-51
2022/09/24 00:30:15;;;;;;;60.13;43.08;;;14.00;99.90;;;;;;5068480;28;20094;-48
2022/09/24 00:32:42;;;;;;;64.82;47.20;;;14.00;99.90;;;;;;5070020;28;20095;-48
2022/09/24 00:35:10;;;;;;;61.33;46.40;;;14.00;99.90;;;;;;5067046;28;20346;-48
2022/09/24 00:37:36;;;;;;;64.20;48.65;;;14.00;99.90;;;;;;5071476;28;20040;-49
2022/09/24 00:40:04;;;;;;;64.63;48.80;;;14.10;99.90;;;;;;5068767;28;20048;-50
2022/09/24 00:42:31;;;;;;;68.72;48.92;;;14.00;99.90;;;;;;5069785;28;20443;-48
2022/09/24 00:45:03;;;;;;;61.05;47.00;;;14.00;99.90;;;;;;5071233;28;20055;-48
2022/09/24 00:47:35;;;;;;;67.32;49.00;;;14.00;99.90;;;;;;5069359;28;20049;-47
2022/09/24 00:50:18;;;;;;;63.97;47.20;;;14.00;99.90;;;;;;5066487;28;20052;-46
2022/09/24 00:52:48;;;;;;;67.85;48.33;;;14.10;99.90;;;;;;5069951;28;20076;-49
2022/09/24 00:55:15;;;;;;;64.78;48.28;;;14.00;99.90;;;;;;5070049;28;20049;-47
2022/09/24 00:57:42;;;;;;;64.22;47.08;;;14.00;99.90;;;;;;5070807;28;20480;-40
2022/09/24 01:00:11;;;;;;;62.30;46.25;;;14.00;99.90;;;;;;5070375;28;20056;-48
2022/09/24 01:02:39;;;;;;;70.88;50.63;;;14.00;99.90;;;;;;5067881;28;20056;-48
2022/09/24 01:05:07;;;;;;;66.50;49.78;;;14.00;99.90;;;;;;5070145;28;20481;-48
2022/09/24 01:07:34;;;;;;;66.05;50.05;;;14.00;99.90;;;;;;5055058;28;20090;-47
2022/09/24 01:10:01;;;;;;;68.13;49.97;;;14.00;99.90;;;;;;5065696;28;20056;-45
2022/09/24 01:12:32;;;;;;;67.85;48.60;;;14.00;99.90;;;;;;5069118;28;20056;-50
2022/09/24 01:15:20;;;;;;;64.88;49.03;;;14.00;99.90;;;;;;5072039;28;20106;-51
2022/09/24 01:17:51;;;;;;;70.82;49.97;;;14.00;99.90;;;;;;5073191;28;20080;-49
2022/09/24 01:20:46;;;;;;;67.18;49.67;;;14.00;99.90;;;;;;5075068;28;20048;-49
2022/09/24 01:23:29;;;;;;;67.32;48.90;;;14.00;99.90;;;;;;5071733;28;20122;-47
2022/09/24 01:26:11;;;;;;;67.65;48.10;;;14.00;99.90;;;;;;5074765;28;20048;-52
2022/09/24 01:28:43;;;;;;;66.75;48.85;;;14.00;99.90;;;;;;5071668;28;20102;-48
2022/09/24 01:31:14;;;;;;;70.05;50.97;;;13.90;99.90;;;;;;5073335;28;20102;-48
2022/09/24 01:33:41;;;;;;;62.43;47.87;;;14.00;99.90;;;;;;5072930;28;20102;-48
2022/09/24 01:36:08;;;;;;;66.93;48.97;;;14.00;99.90;;;;;;5073518;28;20372;-51
2022/09/24 01:38:38;;;;;;;59.55;45.40;;;14.00;99.90;;;;;;5069227;28;20381;-50
2022/09/24 01:41:06;;;;;;;65.68;48.47;;;14.00;99.90;;;;;;5073641;28;20052;-52
2022/09/24 01:43:33;;;;;;;68.68;50.80;;;14.00;99.90;;;;;;5071299;28;20060;-50
2022/09/24 01:46:01;;;;;;;61.13;44.13;;;14.00;99.90;;;;;;5074108;28;20091;-44
2022/09/24 01:48:29;;;;;;;59.70;46.28;;;14.00;99.90;;;;;;5068211;28;20110;-52
2022/09/24 01:50:58;;;;;;;68.32;49.90;;;14.00;99.90;;;;;;5069897;28;20095;-47
2022/09/24 01:53:26;;;;;;;66.40;48.63;;;14.00;99.90;;;;;;5067827;28;20138;-51
2022/09/24 01:55:55;;;;;;;69.10;50.83;;;14.00;99.90;;;;;;5071470;28;20048;-50
2022/09/24 01:58:26;;;;;;;68.35;51.00;;;14.00;99.90;;;;;;5072160;28;20443;-49
2022/09/24 02:00:56;;;;;;;70.25;50.58;;;14.00;99.90;;;;;;5073547;28;20052;-49
2022/09/24 02:03:25;;;;;;;64.75;47.45;;;14.00;99.90;;;;;;5065411;28;20060;-50
2022/09/24 02:05:55;;;;;;;69.25;50.45;;;14.00;99.90;;;;;;5071244;28;20052;-52
2022/09/24 02:08:22;;;;;;;62.95;46.58;;;13.90;99.90;;;;;;5064538;28;20447;-51
2022/09/24 02:10:51;;;;;;;63.85;48.60;;;14.00;99.90;;;;;;5072338;28;20048;-51
2022/09/24 02:13:18;;;;;;;67.22;48.78;;;14.00;99.90;;;;;;5057179;28;20090;-48
2022/09/24 02:15:46;;;;;;;62.58;46.85;;;14.00;99.90;;;;;;5072029;28;20508;-48
2022/09/24 02:18:17;;;;;;;61.15;46.40;;;14.00;99.90;;;;;;5071359;28;20515;-51
2022/09/24 02:20:44;;;;;;;57.08;42.60;;;13.90;99.90;;;;;;5073873;28;20052;-49
2022/09/24 02:23:13;;;;;;;71.60;49.45;;;13.90;99.90;;;;;;5070838;28;21316;-49
2022/09/24 02:25:42;;;;;;;68.15;50.00;;;13.90;99.90;;;;;;5070062;28;20082;-50
2022/09/24 02:28:09;;;;;;;70.47;49.05;;;13.90;99.90;;;;;;5069937;28;20056;-50
2022/09/24 02:30:39;;;;;;;67.65;48.92;;;13.90;99.90;;;;;;5073295;28;20079;-51
2022/09/24 02:34:19;;;;;;;65.32;49.75;;;13.90;99.90;;;;;;5069439;28;20057;-52
2022/09/24 02:35:52;;;;;;;68.72;50.22;;;13.90;99.90;;;;;;5072222;28;20128;-51
2022/09/24 02:38:20;;;;;;;70.47;49.30;;;13.90;99.90;;;;;;5071391;28;20131;-50
2022/09/24 02:40:47;;;;;;;71.68;49.90;;;13.90;99.90;;;;;;5072621;28;20068;-52
2022/09/24 02:43:14;;;;;;;58.55;44.50;;;13.90;99.90;;;;;;5071877;28;20044;-48
2022/09/24 02:45:41;;;;;;;54.58;43.17;;;13.90;99.90;;;;;;5072753;28;20071;-51
2022/09/24 02:48:08;;;;;;;59.95;46.28;;;13.90;99.90;;;;;;5073993;28;20083;-51
2022/09/24 02:50:34;;;;;;;61.83;45.05;;;13.90;99.90;;;;;;5070648;28;20099;-53
2022/09/24 02:53:02;;;;;;;67.00;48.40;;;13.80;99.90;;;;;;5070066;28;20118;-52
2022/09/24 02:55:30;;;;;;;66.97;48.33;;;13.90;99.90;;;;;;5072102;28;20102;-47
2022/09/24 02:57:57;;;;;;;73.13;51.67;;;13.90;99.90;;;;;;5072269;28;20060;-51
2022/09/24 03:00:24;;;;;;;66.60;48.90;;;13.80;99.90;;;;;;5073116;28;20097;-50
2022/09/24 03:02:51;;;;;;;68.75;48.88;;;13.90;99.90;;;;;;5071955;28;20048;-49
2022/09/24 03:05:17;;;;;;;66.68;48.92;;;13.80;99.90;;;;;;5071276;28;20044;-50
2022/09/24 03:07:44;;;;;;;72.97;50.10;;;13.80;99.90;;;;;;5073302;28;20055;-47
2022/09/24 03:10:11;;;;;;;71.43;50.08;;;13.80;99.90;;;;;;5071930;28;20076;-46
2022/09/24 03:12:41;;;;;;;71.82;49.20;;;13.80;99.90;;;;;;5071037;28;20040;-48
2022/09/24 03:15:08;;;;;;;74.43;50.33;;;13.80;99.90;;;;;;5073179;28;20060;-44
2022/09/24 03:17:35;;;;;;;71.55;50.08;;;13.70;99.90;;;;;;5062037;28;20052;-46
2022/09/24 03:20:02;;;;;;;71.40;50.55;;;13.70;99.90;;;;;;5071234;28;20086;-45
2022/09/24 03:22:29;;;;;;;70.00;48.92;;;13.80;99.90;;;;;;5071350;28;20072;-46
2022/09/24 03:24:56;;;;;;;60.75;45.25;;;13.80;99.90;;;;;;5070687;28;20210;-49
2022/09/24 03:27:23;;;;;;;71.55;49.22;;;13.80;99.90;;;;;;5070553;28;20135;-47
2022/09/24 03:32:35;;;;;;;70.20;50.03;;;13.70;99.90;;;;;;5069117;28;20064;-50
2022/09/24 03:35:02;;;;;;;69.20;47.17;;;13.80;99.90;;;;;;5072656;28;20053;-44
2022/09/24 03:37:30;;;;;;;60.50;42.78;;;13.70;99.90;;;;;;5071514;28;20048;-48
2022/09/24 03:39:57;;;;;;;63.42;45.95;;;13.80;99.90;;;;;;5070658;28;20040;-43
2022/09/24 03:42:24;;;;;;;63.75;46.95;;;13.70;99.90;;;;;;5070171;28;20097;-47
2022/09/24 03:44:53;;;;;;;65.97;47.00;;;13.80;99.90;;;;;;5068283;28;20066;-49
2022/09/24 03:47:20;;;;;;;63.92;47.33;;;13.70;99.90;;;;;;5071327;28;20044;-50
2022/09/24 03:49:46;;;;;;;70.63;50.30;;;13.80;99.90;;;;;;5071346;28;20478;-50
2022/09/24 03:52:13;;;;;;;69.25;49.00;;;13.80;99.90;;;;;;5072066;28;20049;-47
2022/09/24 03:54:40;;;;;;;65.25;47.40;;;13.80;99.90;;;;;;5071652;28;20080;-49
2022/09/24 03:57:07;;;;;;;72.60;49.90;;;13.80;99.90;;;;;;5071519;28;20052;-51
2022/09/24 03:59:34;;;;;;;69.90;49.05;;;13.70;99.90;;;;;;5071333;28;20484;-48
2022/09/24 04:02:02;;;;;;;60.55;43.38;;;13.80;99.90;;;;;;5067680;28;20052;-48
2022/09/24 04:04:28;;;;;;;74.97;51.20;;;13.80;99.90;;;;;;5069733;28;20117;-51
2022/09/24 04:06:55;;;;;;;68.80;47.78;;;13.80;99.90;;;;;;5070047;28;20101;-49
2022/09/24 04:09:22;;;;;;;61.20;46.95;;;13.80;99.90;;;;;;5075511;28;20425;-49
2022/09/24 04:11:51;;;;;;;70.05;49.35;;;13.80;99.90;;;;;;5066294;28;20049;-49
2022/09/24 04:14:18;;;;;;;62.47;45.85;;;13.80;99.90;;;;;;5068761;28;20044;-50
2022/09/24 04:16:45;;;;;;;63.42;47.25;;;13.80;99.90;;;;;;5065833;28;20064;-47
2022/09/24 04:19:14;;;;;;;71.13;50.90;;;13.80;99.90;;;;;;5072563;28;20091;-50
2022/09/24 04:21:41;;;;;;;61.10;45.92;;;13.80;99.90;;;;;;5071664;28;20102;-51
2022/09/24 04:24:08;;;;;;;65.90;47.88;;;13.80;99.90;;;;;;5066843;28;20094;-44
2022/09/24 04:26:35;;;;;;;70.97;50.40;;;13.80;99.90;;;;;;5070873;28;20071;-48
2022/09/24 04:29:02;;;;;;;67.60;49.47;;;13.80;99.90;;;;;;5065967;28;20098;-50
2022/09/24 04:31:29;;;;;;;66.50;46.83;;;13.70;99.90;;;;;;5067992;28;20133;-48
2022/09/24 04:33:55;;;;;;;69.28;49.03;;;13.80;99.90;;;;;;5068516;28;20484;-50
2022/09/24 04:36:24;;;;;;;66.30;48.30;;;13.80;99.90;;;;;;5068131;28;20056;-51
2022/09/24 04:38:50;;;;;;;63.42;45.60;;;13.70;99.90;;;;;;5071409;28;20121;-50
2022/09/24 04:41:17;;;;;;;63.17;48.17;;;13.80;99.90;;;;;;5071710;28;20143;-49
2022/09/24 04:43:45;;;;;;;76.20;52.45;;;13.80;99.90;;;;;;5070306;28;20072;-47
2022/09/24 04:46:12;;;;;;;58.08;44.30;;;13.80;99.90;;;;;;5069920;28;20408;-47
2022/09/24 04:48:39;;;;;;;64.70;48.00;;;13.80;99.90;;;;;;5058254;28;20053;-49
2022/09/24 04:51:06;;;;;;;60.53;44.13;;;13.70;99.90;;;;;;5070706;28;20094;-48
2022/09/24 04:53:35;;;;;;;64.93;48.85;;;13.80;99.90;;;;;;5073608;28;20040;-46
2022/09/24 04:56:02;;;;;;;67.25;48.33;;;13.80;99.90;;;;;;5071212;28;20056;-48
2022/09/24 04:58:29;;;;;;;60.22;44.08;;;13.80;99.90;;;;;;5075325;28;20048;-45
2022/09/24 05:00:56;;;;;;;63.42;48.22;;;13.80;99.90;;;;;;5075488;28;20079;-45
2022/09/24 05:03:22;;;;;;;75.85;52.92;;;13.70;99.90;;;;;;5067068;28;20044;-50
2022/09/24 05:05:49;;;;;;;67.95;49.47;;;13.70;99.90;;;;;;5074449;28;20610;-50
2022/09/24 05:08:16;;;;;;;70.43;49.00;;;13.70;99.90;;;;;;5070698;28;20048;-48
2022/09/24 05:10:44;;;;;;;60.13;46.40;;;13.70;99.90;;;;;;5073919;28;20048;-50
2022/09/24 05:13:11;;;;;;;68.68;47.80;;;13.80;99.90;;;;;;5073326;28;20048;-49
2022/09/24 05:15:38;;;;;;;74.70;52.33;;;13.70;99.90;;;;;;5074560;28;20049;-48
2022/09/24 05:18:05;;;;;;;70.45;48.55;;;13.70;99.90;;;;;;5073656;28;20045;-51
2022/09/24 05:20:32;;;;;;;63.83;46.25;;;13.70;99.90;;;;;;5074047;28;20402;-49
2022/09/24 05:22:59;;;;;;;73.97;52.63;;;13.80;99.90;;;;;;5073378;28;20045;-48
2022/09/24 05:25:26;;;;;;;72.90;51.03;;;13.70;99.90;;;;;;5071540;28;20109;-47
2022/09/24 05:27:53;;;;;;;66.30;49.10;;;13.70;99.90;;;;;;5073824;28;20044;-51
2022/09/24 05:30:21;;;;;;;72.88;52.17;;;13.80;99.90;;;;;;5072427;28;20072;-47
2022/09/24 05:32:50;;;;;;;74.80;52.22;;;13.70;99.90;;;;;;5074769;28;20110;-50
2022/09/24 05:35:17;;;;;;;78.82;53.13;;;13.80;99.90;;;;;;5067682;28;20057;-50
2022/09/24 05:37:44;;;;;;;69.88;50.33;;;13.70;99.90;;;;;;5073481;28;20122;-48
2022/09/24 05:43:01;;;;;;;68.20;50.10;;;13.80;99.90;;;;;;5071850;28;20048;-66
2022/09/24 05:45:28;;;;;;;64.03;47.38;;;13.80;99.90;;;;;;5073169;28;20044;-62
2022/09/24 05:47:55;;;;;;;63.45;45.17;;;13.70;99.90;;;;;;5073074;28;20450;-63
2022/09/24 05:50:21;;;;;;;67.30;48.05;;;13.80;99.90;;;;;;5073370;28;20087;-63
2022/09/24 05:52:48;;;;;;;63.67;45.75;;;13.80;99.90;;;;;;5069329;28;20048;-59
2022/09/24 05:55:15;;;;;;;63.92;48.00;;;13.80;99.90;;;;;;5071605;28;20454;-56
2022/09/24 05:57:42;;;;;;;68.32;48.17;;;13.80;99.90;;;;;;5073106;28;20048;-60
2022/09/24 06:00:12;;;;;;;73.00;52.35;;;13.80;99.90;;;;;;5071719;28;20052;-59
2022/09/24 06:02:39;;;;;;;71.22;51.80;;;13.80;99.90;;;;;;5070927;28;20053;-62
2022/09/24 06:05:06;;;;;;;67.57;48.08;;;13.80;99.90;;;;;;5070926;28;20045;-59
2022/09/24 06:07:33;;;;;;;57.05;44.03;;;13.80;99.90;;;;;;5071773;28;20443;-59
2022/09/24 06:10:00;;;;;;;64.55;48.00;;;13.80;99.90;;;;;;5072841;28;20107;-60
2022/09/24 06:12:27;;;;;;;72.88;52.13;;;13.90;99.90;;;;;;5070621;28;20492;-60
2022/09/24 06:14:54;;;;;;;63.30;46.67;;;13.80;99.90;;;;;;5071221;28;20048;-54
2022/09/24 06:17:22;;;;;;;55.92;41.40;;;13.80;99.90;;;;;;5070551;28;20088;-60
2022/09/24 06:19:49;;;;;;;53.50;40.33;;;13.80;99.90;;;;;;5073682;28;20496;-59
2022/09/24 06:22:16;;;;;;;52.97;39.22;;;13.70;99.90;;;;;;5071631;28;20052;-59
2022/09/24 06:24:42;;;;;;;45.47;34.53;;;13.80;99.90;;;;;;5070421;28;20486;-44
2022/09/24 06:27:09;;;;;;;37.05;29.75;;;13.70;99.90;;;;;;5069643;28;20647;-57
2022/09/24 06:29:36;;;;;;;33.15;26.70;;;13.80;99.90;;;;;;5071790;28;20055;-56
2022/09/24 06:32:03;;;;;;;29.70;24.58;;;13.70;99.90;;;;;;5070983;28;20055;-55
2022/09/24 06:34:31;;;;;;;32.65;24.75;;;13.80;99.90;;;;;;5069328;28;20500;-54
2022/09/24 06:36:58;;;;;;;28.50;23.30;;;13.80;99.90;;;;;;5072106;28;20044;-55
2022/09/24 06:39:26;;;;;;;28.60;22.95;;;13.70;99.90;;;;;;5071620;28;20492;-57
2022/09/24 06:41:53;;;;;;;27.95;22.50;;;13.80;99.90;;;;;;5069346;28;20044;-56
2022/09/24 06:44:20;;;;;;;23.05;19.05;;;13.70;99.90;;;;;;5066703;28;20543;-59
2022/09/24 06:46:47;;;;;;;27.33;20.08;;;13.80;99.90;;;;;;5072072;28;20049;-64
2022/09/24 06:49:14;;;;;;;22.08;18.20;;;13.70;99.90;;;;;;5069077;28;20064;-61
2022/09/24 06:51:42;;;;;;;23.88;19.50;;;13.80;99.90;;;;;;5067832;28;20055;-58
2022/09/24 06:54:09;;;;;;;24.83;19.55;;;13.80;99.90;;;;;;5063169;28;20044;-58
2022/09/24 06:56:36;;;;;;;22.15;19.00;;;13.80;99.90;;;;;;5067818;28;20056;-57
2022/09/24 06:59:03;;;;;;;25.48;19.13;;;13.80;99.90;;;;;;5071438;28;20052;-57
2022/09/24 07:01:30;;;;;;;20.38;16.92;;;13.80;99.90;;;;;;5069837;28;20499;-54
2022/09/24 07:03:57;;;;;;;20.90;17.27;;;13.90;99.90;;;;;;5066739;28;20063;-53
2022/09/24 07:07:28;;;;;;;24.23;18.80;;;13.90;99.90;;;;;;5069675;28;20052;-53
2022/09/24 07:09:17;;;;;;;24.70;17.33;;;13.90;99.90;;;;;;5066842;28;20492;-51
2022/09/24 07:11:45;;;;;;;22.88;18.15;;;13.90;99.90;;;;;;5069586;28;20051;-49
2022/09/24 07:14:12;;;;;;;21.95;17.55;;;14.00;99.90;;;;;;5064173;28;20130;-51
2022/09/24 07:16:39;;;;;;;25.75;18.15;;;14.00;99.90;;;;;;5066536;28;20045;-51
2022/09/24 07:19:06;;;;;;;22.55;17.70;;;14.10;99.90;;;;;;5061760;28;20059;-51
2022/09/24 07:21:33;;;;;;;23.00;17.52;;;14.00;99.90;;;;;;5067775;28;20558;-52
2022/09/24 07:24:01;;;;;;;26.48;18.85;;;14.10;99.90;;;;;;5067275;28;20565;-53
2022/09/24 07:26:30;;;;;;;22.45;17.42;;;14.10;99.90;;;;;;5065966;28;20048;-54
2022/09/24 07:28:57;;;;;;;25.55;18.52;;;14.20;99.90;;;;;;5063993;28;20068;-54
2022/09/24 07:31:25;;;;;;;25.92;19.60;;;14.20;99.90;;;;;;5065787;28;20040;-54
2022/09/24 07:33:52;;;;;;;27.33;19.38;;;14.20;99.90;;;;;;5065572;28;20439;-52
2022/09/24 07:36:19;;;;;;;20.92;17.30;;;14.30;99.90;;;;;;5063433;28;20047;-51
2022/09/24 07:38:47;;;;;;;26.50;19.42;;;14.30;99.90;;;;;;5067343;28;20504;-54
2022/09/24 07:41:14;;;;;;;25.13;19.48;;;14.30;99.90;;;;;;5066460;28;20127;-52
2022/09/24 07:43:43;;;;;;;34.08;19.40;;;14.30;99.90;;;;;;5064054;28;20053;-54
2022/09/24 07:46:09;;;;;;;25.00;18.63;;;14.40;99.90;;;;;;5067738;28;20122;-54
2022/09/24 07:48:36;;;;;;;32.50;18.15;;;14.40;99.90;;;;;;5064008;28;20050;-50
2022/09/24 07:51:05;;;;;;;26.73;17.75;;;14.40;99.90;;;;;;5065140;28;20558;-54
2022/09/24 07:53:32;;;;;;;30.48;18.05;;;14.50;99.90;;;;;;5065193;28;20049;-50
2022/09/24 07:55:59;;;;;;;31.25;16.70;;;14.50;99.90;;;;;;5066130;28;20045;-54
2022/09/24 07:58:26;;;;;;;25.55;12.55;;;14.50;99.90;;;;;;5064143;28;20056;-54
2022/09/24 08:00:57;;;;;;;20.02;9.85;;;14.50;99.90;;;;;;5061234;28;20044;-53
2022/09/24 08:03:24;;;;;;;20.33;11.43;;;14.50;99.90;;;;;;5060358;28;20126;-53
2022/09/24 08:05:56;;;;;;;22.20;11.70;;;14.50;99.90;;;;;;5065811;28;20677;-55
2022/09/24 08:08:23;;;;;;;24.38;9.93;;;14.60;99.90;;;;;;5067232;28;20047;-51
2022/09/24 08:10:49;;;;;;;23.30;10.00;;;14.60;99.90;;;;;;5064957;28;20055;-54
2022/09/24 08:13:16;;;;;;;17.42;8.93;;;14.60;99.90;;;;;;5064219;28;20043;-50
2022/09/24 08:15:43;;;;;;;25.92;9.20;;;14.60;99.90;;;;;;5065476;28;20055;-50
2022/09/24 08:18:12;;;;;;;25.80;9.48;;;14.70;99.90;;;;;;5065099;28;20055;-47
2022/09/24 08:20:39;;;;;;;26.58;8.52;;;14.70;99.90;;;;;;5066568;28;20055;-52
2022/09/24 08:23:06;;;;;;;23.52;7.43;;;14.80;99.90;;;;;;5064895;28;20049;-54
2022/09/24 08:25:33;;;;;;;23.80;6.90;;;14.80;99.90;;;;;;5063048;28;20130;-48
2022/09/24 08:28:02;;;;;;;18.10;5.47;;;14.90;99.90;;;;;;5061166;28;20532;-50
2022/09/24 08:30:29;;;;;;;17.10;4.53;;;15.00;99.90;;;;;;5066446;28;20076;-53
2022/09/24 08:32:56;;;;;;;23.83;4.93;;;15.00;99.90;;;;;;5065240;28;20053;-52
2022/09/24 08:35:25;;;;;;;20.63;3.45;;;15.00;99.90;;;;;;5063583;28;20040;-55
2022/09/24 08:37:53;;;;;;;20.42;3.70;;;15.10;99.90;;;;;;5066317;28;20378;-56
2022/09/24 08:40:21;;;;;;;21.70;3.70;;;15.20;99.90;;;;;;5058209;28;20580;-54
2022/09/24 08:42:50;;;;;;;20.88;2.90;;;15.20;99.90;;;;;;5065237;28;20055;-53
2022/09/24 08:48:13;;;;;;;16.98;2.70;;;15.30;99.90;;;;;;5065700;28;20123;-51
2022/09/24 08:50:45;;;;;;;14.60;2.50;;;15.30;99.90;;;;;;5063145;28;20131;-54
2022/09/24 08:53:14;;;;;;;15.27;2.28;;;15.40;99.90;;;;;;5069914;28;20127;-54
2022/09/24 08:55:44;;;;;;;10.15;1.80;;;15.40;99.90;;;;;;5056770;28;20041;-50
2022/09/24 08:58:36;;;;;;;12.57;1.77;;;15.40;99.90;;;;;;5059054;28;20052;-54
2022/09/24 09:01:07;;;;;;;9.30;1.88;;;15.40;99.90;;;;;;5068340;28;20527;-50
2022/09/24 09:03:40;;;;;;;6.78;1.58;;;15.40;99.90;;;;;;5060597;28;20427;-54
2022/09/24 09:06:12;;;;;;;10.50;2.10;;;15.40;99.90;;;;;;5062376;28;20056;-53
2022/09/24 09:08:44;;;;;;;10.88;1.70;;;15.50;99.90;;;;;;5065202;28;20052;-52
2022/09/24 09:11:11;;;;;;;;;;;15.40;99.90;;;;;;5065627;28;20052;-53
2022/09/24 09:13:40;;;;;;;7.50;1.30;;;15.50;99.90;;;;;;5068339;28;19925;-52
2022/09/24 09:16:10;;;;;;;8.07;1.55;;;15.40;99.90;;;;;;5068766;28;20110;-50
2022/09/24 09:18:40;;;;;;;8.03;1.60;;;15.50;99.90;;;;;;5068147;28;20043;-49
2022/09/24 09:21:14;;;;;;;12.73;2.33;;;15.50;99.90;;;;;;5070743;28;20041;-53
2022/09/24 09:23:45;;;;;;;9.50;1.45;;;15.50;99.90;;;;;;5069259;28;20078;-51
2022/09/24 09:26:12;;;;;;;6.80;1.55;;;15.50;99.90;;;;;;5065163;28;20400;-44
2022/09/24 09:28:39;;;;;;;9.55;1.90;;;15.50;99.90;;;;;;5069464;28;20076;-51
2022/09/24 09:31:10;;;;;;;10.55;1.70;;;15.50;99.90;;;;;;5067612;28;20078;-48
2022/09/24 09:33:48;;;;;;;11.18;1.80;;;15.50;99.90;;;;;;5066894;28;20053;-43
2022/09/24 09:36:35;;;;;;;9.55;2.00;;;15.60;99.90;;;;;;5069258;28;20040;-48
2022/09/24 09:39:07;;;;;;;13.52;1.90;;;15.60;99.90;;;;;;5064831;28;20072;-50
2022/09/24 09:41:37;;;;;;;16.52;2.25;;;15.70;99.90;;;;;;5066304;28;20048;-51
2022/09/24 09:44:11;;;;;;;12.93;2.30;;;15.70;99.90;;;;;;5068251;28;20049;-42
2022/09/24 09:46:40;;;;;;;17.77;2.38;;;15.80;99.90;;;;;;5074001;28;20051;-49
2022/09/24 09:49:07;;;;;;;11.57;2.17;;;15.90;99.90;;;;;;5073005;28;20051;-47
2022/09/24 09:51:38;;;;;;;17.63;2.97;;;15.90;99.90;;;;;;5073737;28;20040;-47
2022/09/24 09:54:05;;;;;;;15.50;2.60;;;16.00;99.90;;;;;;5073875;28;20045;-46
2022/09/24 09:56:34;;;;;;;18.40;2.13;;;16.10;99.90;;;;;;5072636;28;20051;-50
2022/09/24 09:59:07;;;;;;;13.32;2.65;;;16.20;99.90;;;;;;5069574;28;20493;-47
2022/09/24 10:01:35;;;;;;;10.85;2.13;;;16.30;99.90;;;;;;5067504;28;20041;-47
2022/09/24 10:04:03;;;;;;;18.05;2.75;;;16.30;99.90;;;;;;5070426;28;20052;-47
2022/09/24 10:06:31;;;;;;;17.80;2.50;;;16.30;99.90;;;;;;5071253;28;20049;-41
2022/09/24 10:09:08;;;;;;;17.88;2.50;;;16.30;99.90;;;;;;5066234;28;20401;-44
2022/09/24 10:11:35;;;;;;;21.73;2.63;;;16.20;99.90;;;;;;5071792;28;20044;-49
2022/09/24 10:14:03;;;;;;;14.70;2.45;;;16.10;99.90;;;;;;5074039;28;20048;-50
2022/09/24 10:16:30;;;;;;;12.40;2.28;;;16.10;99.90;;;;;;5071392;28;20044;-48
2022/09/24 10:18:57;;;;;;;16.13;2.15;;;16.00;99.90;;;;;;5070198;28;20045;-50
2022/09/24 10:21:31;;;;;;;14.88;2.03;;;16.00;99.90;;;;;;5069140;28;20427;-45
2022/09/24 10:23:59;;;;;;;15.82;2.63;;;15.90;99.90;;;;;;5070625;28;20059;-44
2022/09/24 10:26:35;;;;;;;12.48;2.30;;;15.90;99.90;;;;;;5069798;28;20052;-47
2022/09/24 10:31:47;;;;;;;14.50;2.15;;;15.80;99.90;;;;;;5061160;28;20405;-44
2022/09/24 10:34:20;;;;;;;14.68;2.08;;;15.80;99.90;;;;;;5066976;28;20056;-47
2022/09/24 10:36:50;;;;;;;13.38;2.63;;;15.80;99.90;;;;;;5069222;28;20307;-44
2022/09/24 10:39:17;;;;;;;15.68;1.83;;;15.80;99.90;;;;;;5065803;28;20063;-47
2022/09/24 10:41:47;;;;;;;7.43;1.27;;;15.80;99.90;;;;;;5072514;28;20484;-48
2022/09/24 10:44:15;;;;;;;11.23;1.83;;;15.80;99.90;;;;;;5072832;28;20098;-46
2022/09/24 10:46:54;;;;;;;8.73;1.67;;;15.90;99.90;;;;;;5073279;28;20052;-50
2022/09/24 10:49:29;;;;;;;9.45;1.65;;;15.90;99.90;;;;;;5072749;28;20048;-47
2022/09/24 10:51:59;;;;;;;7.68;1.60;;;15.90;99.90;;;;;;5073009;28;20044;-49
2022/09/24 10:54:36;;;;;;;7.80;2.08;;;15.90;99.90;;;;;;5070498;28;20064;-49
2022/09/24 10:57:08;;;;;;;10.23;1.45;;;15.90;99.90;;;;;;5071666;28;20040;-49
2022/09/24 10:59:42;;;;;;;7.22;1.23;;;15.90;99.90;;;;;;5066130;28;20365;-45
2022/09/24 11:02:34;;;;;;;5.07;1.85;;;16.00;99.90;;;;;;5065614;28;20811;-49
2022/09/24 11:05:01;;;;;;;4.88;0.75;;;16.10;99.90;;;;;;5063366;28;20052;-48
2022/09/24 11:07:45;;;;;;;7.93;1.10;;;16.10;99.90;;;;;;5068230;28;20048;-49
2022/09/24 11:10:34;;;;;;;4.80;0.90;;;16.20;99.90;;;;;;5065736;28;20068;-46
2022/09/24 11:13:08;;;;;;;6.00;1.00;;;16.30;99.90;;;;;;5067027;28;20060;-40
2022/09/24 11:15:50;;;;;;;4.15;0.70;;;16.30;99.90;;;;;;5065448;28;20094;-46
2022/09/24 11:18:27;;;;;;;2.80;0.80;;;16.30;99.90;;;;;;5066634;28;20041;-43
2022/09/24 11:20:55;;;;;;;7.40;1.08;;;16.40;99.90;;;;;;5068504;28;20052;-50
2022/09/24 11:23:33;;;;;;;3.45;0.90;;;16.30;99.90;;;;;;5073502;28;20044;-50
2022/09/24 11:26:05;;;;;;;3.33;1.10;;;16.30;99.90;;;;;;5072560;28;20063;-47
2022/09/24 11:28:50;;;;;;;5.50;0.90;;;16.30;99.90;;;;;;5073029;28;20484;-48
2022/09/24 11:31:19;;;;;;;3.63;0.70;;;16.30;99.90;;;;;;5070534;28;20071;-45
2022/09/24 11:34:05;;;;;;;4.35;1.20;;;16.30;99.90;;;;;;5073237;28;20052;-49
2022/09/24 11:36:40;;;;;;;3.20;0.95;;;16.30;99.90;;;;;;5071529;28;20049;-49
2022/09/24 11:39:16;;;;;;;5.32;1.00;;;16.30;99.90;;;;;;5073169;28;20098;-47
2022/09/24 11:41:49;;;;;;;6.95;1.02;;;16.30;99.90;;;;;;5060597;28;20123;-48
2022/09/24 11:44:29;;;;;;;3.88;0.80;;;16.30;99.90;;;;;;5072149;28;20056;-49
2022/09/24 11:47:03;;;;;;;5.70;1.15;;;16.40;99.90;;;;;;5073247;28;20045;-50
2022/09/24 11:49:41;;;;;;;4.85;1.15;;;16.40;99.90;;;;;;5069440;28;20079;-49
2022/09/24 11:52:10;;;;;;;4.40;1.00;;;16.40;99.90;;;;;;5073014;28;20486;-47
2022/09/24 11:54:39;;;;;;;5.15;1.20;;;16.40;99.90;;;;;;5072872;28;20037;-46
2022/09/24 11:57:09;;;;;;;5.22;1.00;;;16.40;99.90;;;;;;5071815;28;20052;-50
2022/09/24 11:59:41;;;;;;;6.68;0.80;;;16.40;99.90;;;;;;5072013;28;20113;-43
2022/09/24 12:02:16;;;;;;;4.05;0.82;;;16.40;99.90;;;;;;5071903;28;20067;-48
2022/09/24 12:04:51;;;;;;;4.47;0.88;;;16.40;99.90;;;;;;5071032;28;20048;-45
2022/09/24 12:07:22;;;;;;;7.15;0.93;;;16.40;99.90;;;;;;5072800;28;20052;-49
2022/09/24 12:09:51;;;;;;;6.18;1.55;;;16.40;99.90;;;;;;5071789;28;21993;-49
2022/09/24 12:12:18;;;;;;;4.78;1.23;;;16.30;99.90;;;;;;5071378;28;20110;-47
2022/09/24 12:14:49;;;;;;;6.10;1.35;;;16.30;99.90;;;;;;5072645;28;20045;-47
2022/09/24 12:17:18;;;;;;;5.57;1.65;;;16.30;99.90;;;;;;5072439;28;20102;-48
2022/09/24 12:19:50;;;;;;;5.35;1.50;;;16.30;99.90;;;;;;5070559;28;20052;-49
2022/09/24 12:22:17;;;;;;;6.07;1.30;;;16.20;99.90;;;;;;5071790;28;20094;-38
2022/09/24 12:24:45;;;;;;;7.18;1.33;;;16.20;99.90;;;;;;5071593;28;20469;-48
2022/09/24 12:27:13;;;;;;;5.35;2.63;;;16.10;99.90;;;;;;5069531;28;20044;-47
2022/09/24 12:35:22;;;;;;;4.68;1.00;;;16.20;99.90;;;;;;5071646;28;20057;-47
2022/09/24 12:37:50;;;;;;;4.15;1.30;;;16.20;99.90;;;;;;5070395;28;20132;-47
2022/09/24 12:40:27;;;;;;;6.53;1.05;;;16.20;99.90;;;;;;5072362;28;20396;-45
2022/09/24 12:42:55;;;;;;;9.13;1.23;;;16.20;99.90;;;;;;5071637;28;20401;-47
2022/09/24 12:45:22;;;;;;;6.18;1.20;;;16.20;99.90;;;;;;5071477;28;20056;-44
2022/09/24 12:47:52;;;;;;;8.38;1.30;;;16.20;99.90;;;;;;5070524;28;20052;-48
2022/09/24 12:50:21;;;;;;;5.72;1.00;;;16.20;99.90;;;;;;5071228;28;20049;-50
2022/09/24 12:52:48;;;;;;;2.72;0.90;;;16.20;99.90;;;;;;5072409;28;20051;-47
2022/09/24 12:55:22;;;;;;;5.53;1.10;;;16.20;99.90;;;;;;5072224;28;20131;-48
2022/09/24 12:57:53;;;;;;;4.95;1.23;;;16.20;99.90;;;;;;5069586;28;20052;-48
2022/09/24 13:00:47;;;;;;;6.05;0.93;;;16.20;99.90;;;;;;5072452;28;20055;-45
2022/09/24 13:03:33;;;;;;;5.07;0.98;;;16.20;99.90;;;;;;5034643;28;20048;-49